createdAt,value
2019-03-16T00:00:33.817Z,2.90
2019-03-16T00:02:59.843Z,3.10
2019-03-16T00:05:25.865Z,2.77
2019-03-16T00:07:52.124Z,2.40
2019-03-16T00:10:18.249Z,2.60
2019-03-16T00:12:44.399Z,2.93
2019-03-16T00:15:10.554Z,3.40
2019-03-16T00:17:36.873Z,3.10
2019-03-16T00:20:05.999Z,4.10
2019-03-16T00:22:32.069Z,2.80
2019-03-16T00:24:58.098Z,3.90
2019-03-16T00:27:24.214Z,3.57
2019-03-16T00:29:50.269Z,3.93
2019-03-16T00:32:16.382Z,3.83
2019-03-16T00:34:42.415Z,3.93
2019-03-16T00:37:08.780Z,4.07
2019-03-16T00:39:34.991Z,3.47
2019-03-16T00:42:01.115Z,4.20
2019-03-16T00:44:27.499Z,3.20
2019-03-16T00:46:54.008Z,4.30
2019-03-16T00:49:20.162Z,4.50
2019-03-16T00:51:46.732Z,4.33
2019-03-16T00:54:12.894Z,4.90
2019-03-16T00:56:39.883Z,3.73
2019-03-16T00:59:06.251Z,6.27
2019-03-16T01:01:32.502Z,3.90
2019-03-16T01:03:58.556Z,5.40
2019-03-16T01:06:25.120Z,4.77
2019-03-16T01:08:51.338Z,5.40
2019-03-16T01:11:17.380Z,5.50
2019-03-16T01:13:43.981Z,5.13
2019-03-16T01:16:10.112Z,4.50
2019-03-16T01:18:36.172Z,4.10
2019-03-16T01:21:02.312Z,5.30
2019-03-16T01:23:28.430Z,4.40
2019-03-16T01:25:54.621Z,4.10
2019-03-16T01:28:20.740Z,4.10
2019-03-16T01:30:46.975Z,3.40
2019-03-16T01:33:13.067Z,3.53
2019-03-16T01:35:39.326Z,5.53
2019-03-16T01:38:05.974Z,4.10
2019-03-16T01:40:32.032Z,3.57
2019-03-16T01:42:58.184Z,4.20
2019-03-16T01:45:24.385Z,3.60
2019-03-16T01:47:50.574Z,4.10
2019-03-16T01:50:16.737Z,4.10
2019-03-16T01:52:42.825Z,3.37
2019-03-16T01:55:08.985Z,3.20
2019-03-16T01:57:35.282Z,3.70
2019-03-16T02:00:03.288Z,3.10
2019-03-16T02:02:29.331Z,5.20
2019-03-16T02:04:55.707Z,5.27
2019-03-16T02:07:21.932Z,4.17
2019-03-16T02:09:48.098Z,5.40
2019-03-16T02:12:16.011Z,4.07
2019-03-16T02:14:42.094Z,5.07
2019-03-16T02:17:08.182Z,4.40
2019-03-16T02:19:54.143Z,4.23
2019-03-16T02:22:20.223Z,4.70
2019-03-16T02:24:46.286Z,5.93
2019-03-16T02:27:15.321Z,4.67
2019-03-16T02:29:41.361Z,4.30
2019-03-16T02:32:07.395Z,5.00
2019-03-16T02:34:33.444Z,5.17
2019-03-16T02:36:59.786Z,6.23
2019-03-16T02:39:25.844Z,4.37
2019-03-16T02:41:51.949Z,6.60
2019-03-16T02:44:18.123Z,4.73
2019-03-16T02:46:44.138Z,5.30
2019-03-16T02:49:10.179Z,4.70
2019-03-16T02:51:36.291Z,6.00
2019-03-16T02:54:02.446Z,4.57
2019-03-16T02:56:28.529Z,5.80
2019-03-16T02:58:54.638Z,5.17
2019-03-16T03:01:20.938Z,5.17
2019-03-16T03:03:47.027Z,4.30
2019-03-16T03:06:13.130Z,4.87
2019-03-16T03:08:39.261Z,4.83
2019-03-16T03:11:05.443Z,3.90
2019-03-16T03:13:31.538Z,4.50
2019-03-16T03:15:57.651Z,4.80
2019-03-16T03:18:23.772Z,3.70
2019-03-16T03:20:49.961Z,4.57
2019-03-16T03:23:16.216Z,3.90
2019-03-16T03:25:42.857Z,4.20
2019-03-16T03:28:09.002Z,3.70
2019-03-16T03:30:35.136Z,3.47
2019-03-16T03:33:01.313Z,3.80
2019-03-16T03:35:29.462Z,3.73
2019-03-16T03:37:55.355Z,4.23
2019-03-16T03:40:21.515Z,4.40
2019-03-16T03:42:47.639Z,3.53
2019-03-16T03:45:13.881Z,4.27
2019-03-16T03:47:40.073Z,4.60
2019-03-16T03:50:11.324Z,3.47
2019-03-16T03:52:37.763Z,6.30
2019-03-16T03:55:06.317Z,4.50
2019-03-16T03:57:32.467Z,3.83
2019-03-16T03:59:58.576Z,3.20
2019-03-16T04:02:24.633Z,4.70
2019-03-16T04:04:50.769Z,4.40
2019-03-16T04:07:20.191Z,4.13
2019-03-16T04:09:45.672Z,4.57
2019-03-16T04:12:12.086Z,4.27
2019-03-16T04:14:38.139Z,4.17
2019-03-16T04:17:04.257Z,3.97
2019-03-16T04:19:30.376Z,2.90
2019-03-16T04:21:56.414Z,4.67
2019-03-16T04:24:23.269Z,4.93
2019-03-16T04:26:49.431Z,4.27
2019-03-16T04:29:15.475Z,4.60
2019-03-16T04:31:41.686Z,4.30
2019-03-16T04:34:07.851Z,3.67
2019-03-16T04:36:33.926Z,3.90
2019-03-16T04:39:00.045Z,5.83
2019-03-16T04:41:26.200Z,6.03
2019-03-16T04:43:52.255Z,4.03
2019-03-16T04:46:18.280Z,5.50
2019-03-16T04:48:46.783Z,4.33
2019-03-16T04:51:12.857Z,4.87
2019-03-16T04:53:38.912Z,3.00
2019-03-16T04:56:05.033Z,3.50
2019-03-16T04:58:31.060Z,4.87
2019-03-16T05:00:57.099Z,5.70
2019-03-16T05:03:23.175Z,4.47
2019-03-16T05:05:49.350Z,4.57
2019-03-16T05:08:15.390Z,4.60
2019-03-16T05:10:41.447Z,4.57
2019-03-16T05:13:07.595Z,5.20
2019-03-16T05:15:36.653Z,6.53
2019-03-16T05:18:02.840Z,4.57
2019-03-16T05:20:28.981Z,3.50
2019-03-16T05:22:55.054Z,4.47
2019-03-16T05:25:21.547Z,4.60
2019-03-16T05:27:47.759Z,4.40
2019-03-16T05:30:13.909Z,4.17
2019-03-16T05:32:40.227Z,5.00
2019-03-16T05:35:06.949Z,4.90
2019-03-16T05:37:33.117Z,5.30
2019-03-16T05:39:59.249Z,5.23
2019-03-16T05:42:25.301Z,5.20
2019-03-16T05:44:51.475Z,4.73
2019-03-16T05:47:17.517Z,4.40
2019-03-16T05:49:43.592Z,5.23
2019-03-16T05:52:09.653Z,5.67
2019-03-16T05:54:35.817Z,4.60
2019-03-16T05:57:01.988Z,4.13
2019-03-16T05:59:28.249Z,4.83
2019-03-16T06:01:54.328Z,5.80
2019-03-16T06:04:20.459Z,4.50
2019-03-16T06:06:46.519Z,6.83
2019-03-16T06:09:12.603Z,5.33
2019-03-16T06:11:38.645Z,4.40
2019-03-16T06:14:04.803Z,4.87
2019-03-16T06:16:30.930Z,5.70
2019-03-16T06:18:57.327Z,4.20
2019-03-16T06:21:23.450Z,5.67
2019-03-16T06:23:49.638Z,7.23
2019-03-16T06:26:15.834Z,5.30
2019-03-16T06:28:41.971Z,5.50
2019-03-16T06:31:08.100Z,6.97
2019-03-16T06:33:34.490Z,4.67
2019-03-16T06:36:00.599Z,5.37
2019-03-16T06:38:26.952Z,6.30
2019-03-16T06:40:53.079Z,4.50
2019-03-16T06:43:19.199Z,4.77
2019-03-16T06:45:45.402Z,4.97
2019-03-16T06:48:11.517Z,5.10
2019-03-16T06:50:37.691Z,4.57
2019-03-16T06:53:03.874Z,5.17
2019-03-16T06:55:30.164Z,5.17
2019-03-16T06:57:56.266Z,5.40
2019-03-16T07:00:22.399Z,4.40
2019-03-16T07:02:48.515Z,4.43
2019-03-16T07:05:14.918Z,5.73
2019-03-16T07:07:41.078Z,6.00
2019-03-16T07:10:09.859Z,4.80
2019-03-16T07:12:35.940Z,5.70
2019-03-16T07:15:03.415Z,7.20
2019-03-16T07:17:29.473Z,8.03
2019-03-16T07:19:55.590Z,5.50
2019-03-16T07:22:21.738Z,5.67
2019-03-16T07:24:47.802Z,7.10
2019-03-16T07:27:25.738Z,7.00
2019-03-16T07:29:44.147Z,6.00
2019-03-16T07:32:10.192Z,6.07
2019-03-16T07:34:36.490Z,5.47
2019-03-16T07:37:02.593Z,5.30
2019-03-16T07:39:28.655Z,6.20
2019-03-16T07:41:54.809Z,5.10
2019-03-16T07:44:20.936Z,6.03
2019-03-16T07:46:46.994Z,5.47
2019-03-16T07:49:13.117Z,5.90
2019-03-16T07:51:39.238Z,5.63
2019-03-16T07:54:05.445Z,7.27
2019-03-16T07:56:31.838Z,6.67
2019-03-16T07:58:58.079Z,5.90
2019-03-16T08:01:24.199Z,5.57
2019-03-16T08:03:50.388Z,7.10
2019-03-16T08:06:16.684Z,6.27
2019-03-16T08:08:46.099Z,6.10
2019-03-16T08:11:12.271Z,7.00
2019-03-16T08:13:40.403Z,6.70
2019-03-16T08:16:06.812Z,6.63
2019-03-16T08:18:33.249Z,5.67
2019-03-16T08:20:59.723Z,6.00
2019-03-16T08:23:26.651Z,7.10
2019-03-16T08:25:52.956Z,6.77
2019-03-16T08:28:19.066Z,5.77
2019-03-16T08:30:47.024Z,6.60
2019-03-16T08:33:13.087Z,5.90
2019-03-16T08:35:39.138Z,4.63
2019-03-16T08:38:05.231Z,7.20
2019-03-16T08:40:31.260Z,5.20
2019-03-16T08:42:57.384Z,7.03
2019-03-16T08:45:23.437Z,5.13
2019-03-16T08:47:49.554Z,5.70
2019-03-16T08:50:15.627Z,6.37
2019-03-16T08:52:41.679Z,5.07
2019-03-16T08:55:09.153Z,7.53
2019-03-16T08:57:35.302Z,5.33
2019-03-16T09:02:39.628Z,5.03
2019-03-16T09:05:12.294Z,8.30
2019-03-16T09:07:38.787Z,5.90
2019-03-16T09:10:08.738Z,11.30
2019-03-16T09:12:34.831Z,5.13
2019-03-16T09:15:00.881Z,8.50
2019-03-16T09:17:26.947Z,6.37
2019-03-16T09:19:53.028Z,8.07
2019-03-16T09:22:19.467Z,7.53
2019-03-16T09:24:45.764Z,6.67
2019-03-16T09:27:11.786Z,6.23
2019-03-16T09:29:37.915Z,5.50
2019-03-16T09:32:04.305Z,6.27
2019-03-16T09:34:30.505Z,5.67
2019-03-16T09:36:56.860Z,5.00
2019-03-16T09:39:23.026Z,5.10
2019-03-16T09:41:49.504Z,4.40
2019-03-16T09:44:16.145Z,7.30
2019-03-16T09:46:42.267Z,4.70
2019-03-16T09:49:11.162Z,6.00
2019-03-16T09:51:37.425Z,4.90
2019-03-16T09:54:03.621Z,5.20
2019-03-16T09:56:29.801Z,5.10
2019-03-16T09:58:55.831Z,5.10
2019-03-16T10:01:21.951Z,4.20
2019-03-16T10:03:48.088Z,4.03
2019-03-16T10:06:14.155Z,4.80
2019-03-16T10:08:40.167Z,5.00
2019-03-16T10:11:06.252Z,4.07
2019-03-16T10:13:32.943Z,5.00
2019-03-16T10:15:59.745Z,4.13
2019-03-16T10:18:25.798Z,4.00
2019-03-16T10:20:51.853Z,5.73
2019-03-16T10:23:17.937Z,5.23
2019-03-16T10:25:44.061Z,5.53
2019-03-16T10:28:10.202Z,4.40
2019-03-16T10:30:36.198Z,4.00
2019-03-16T10:33:02.182Z,4.83
2019-03-16T10:35:28.226Z,4.43
2019-03-16T10:37:54.284Z,3.50
2019-03-16T10:40:20.384Z,4.80
2019-03-16T10:42:46.843Z,3.83
2019-03-16T10:45:12.983Z,5.23
2019-03-16T10:47:39.106Z,3.80
2019-03-16T10:50:11.059Z,3.70
2019-03-16T10:52:37.211Z,4.10
2019-03-16T10:55:05.582Z,3.87
2019-03-16T10:57:31.667Z,4.43
2019-03-16T11:02:51.403Z,3.63
2019-03-16T11:05:19.511Z,3.70
2019-03-16T11:07:45.765Z,4.00
2019-03-16T11:10:13.116Z,4.10
2019-03-16T11:12:39.264Z,4.00
2019-03-16T11:15:07.996Z,4.93
2019-03-16T11:17:34.179Z,3.57
2019-03-16T11:20:00.425Z,4.60
2019-03-16T11:22:26.669Z,4.67
2019-03-16T11:24:53.167Z,4.50
2019-03-16T11:27:19.398Z,4.93
2019-03-16T11:29:45.933Z,3.40
2019-03-16T11:32:13.322Z,3.70
2019-03-16T11:34:39.428Z,4.10
2019-03-16T11:37:05.529Z,4.20
2019-03-16T11:39:32.339Z,3.80
2019-03-16T11:41:58.824Z,2.80
2019-03-16T11:44:25.083Z,4.60
2019-03-16T11:46:51.280Z,3.43
2019-03-16T11:49:17.444Z,3.90
2019-03-16T11:51:43.607Z,4.40
2019-03-16T11:54:09.803Z,3.10
2019-03-16T11:56:36.298Z,3.40
2019-03-16T11:59:02.442Z,3.93
2019-03-16T12:01:28.596Z,3.83
2019-03-16T12:03:54.674Z,3.30
2019-03-16T12:06:20.692Z,3.87
2019-03-16T12:08:46.960Z,3.23
2019-03-16T12:11:13.202Z,4.97
2019-03-16T12:13:39.318Z,3.60
2019-03-16T12:16:05.489Z,10.00
2019-03-16T12:18:31.799Z,10.47
2019-03-16T12:20:57.935Z,8.97
2019-03-16T12:23:24.047Z,3.70
2019-03-16T12:25:52.425Z,3.87
2019-03-16T12:28:18.880Z,4.33
2019-03-16T12:30:44.919Z,2.17
2019-03-16T12:33:11.027Z,2.90
2019-03-16T12:35:37.229Z,2.40
2019-03-16T12:38:03.369Z,3.70
2019-03-16T12:40:29.430Z,1.73
2019-03-16T12:42:56.722Z,2.60
2019-03-16T12:45:23.094Z,1.93
2019-03-16T12:47:49.138Z,1.77
2019-03-16T12:50:15.276Z,2.80
2019-03-16T12:52:41.997Z,3.27
2019-03-16T12:55:09.392Z,2.77
2019-03-16T12:57:35.724Z,2.67
2019-03-16T13:00:04.993Z,2.83
2019-03-16T13:02:31.222Z,2.90
2019-03-16T13:04:57.344Z,1.90
2019-03-16T13:07:24.147Z,2.90
2019-03-16T13:09:50.474Z,3.60
2019-03-16T13:12:16.562Z,4.00
2019-03-16T13:14:42.824Z,3.40
2019-03-16T13:17:09.078Z,3.43
2019-03-16T13:19:35.343Z,2.73
2019-03-16T13:22:01.551Z,2.93
2019-03-16T13:24:27.716Z,2.67
2019-03-16T13:26:53.922Z,2.83
2019-03-16T13:29:20.117Z,2.93
2019-03-16T13:31:46.236Z,2.80
2019-03-16T13:34:12.580Z,2.20
2019-03-16T13:36:38.787Z,2.10
2019-03-16T13:39:05.317Z,3.53
2019-03-16T13:41:31.692Z,5.67
2019-03-16T13:43:57.938Z,10.50
2019-03-16T13:46:24.128Z,4.50
2019-03-16T13:48:50.211Z,3.77
2019-03-16T13:51:16.650Z,4.03
2019-03-16T13:53:43.056Z,3.70
2019-03-16T13:56:10.311Z,4.17
2019-03-16T13:58:36.502Z,4.00
2019-03-16T14:01:02.864Z,4.80
2019-03-16T14:03:29.025Z,5.10
2019-03-16T14:05:55.608Z,6.30
2019-03-16T14:08:21.752Z,3.70
2019-03-16T14:10:47.934Z,4.20
2019-03-16T14:13:14.300Z,3.50
2019-03-16T14:15:40.485Z,4.50
2019-03-16T14:18:06.643Z,2.90
2019-03-16T14:20:32.750Z,3.60
2019-03-16T14:22:59.318Z,3.30
2019-03-16T14:25:25.781Z,3.77
2019-03-16T14:27:51.972Z,2.93
2019-03-16T14:30:34.814Z,2.80
2019-03-16T14:32:47.412Z,3.13
2019-03-16T14:35:13.793Z,3.07
2019-03-16T14:37:40.286Z,3.13
2019-03-16T14:40:12.683Z,3.00
2019-03-16T14:42:46.333Z,3.20
2019-03-16T14:45:14.318Z,2.20
2019-03-16T14:47:40.547Z,2.57
2019-03-16T14:50:21.024Z,3.17
2019-03-16T14:52:47.241Z,2.57
2019-03-16T14:55:14.152Z,3.00
2019-03-16T14:57:40.250Z,2.33
2019-03-16T15:00:14.393Z,2.30
2019-03-16T15:02:40.911Z,2.20
2019-03-16T15:05:07.497Z,2.20
2019-03-16T15:07:33.510Z,2.07
2019-03-16T15:10:00.039Z,2.40
2019-03-16T15:12:30.057Z,3.33
2019-03-16T15:14:56.214Z,2.50
2019-03-16T15:17:25.246Z,1.90
2019-03-16T15:19:50.272Z,2.40
2019-03-16T15:22:16.473Z,2.77
2019-03-16T15:24:42.733Z,2.00
2019-03-16T15:27:08.940Z,2.40
2019-03-16T15:29:35.057Z,2.43
2019-03-16T15:32:01.250Z,2.73
2019-03-16T15:34:27.685Z,2.70
2019-03-16T15:36:53.862Z,2.10
2019-03-16T15:39:19.999Z,2.90
2019-03-16T15:41:48.054Z,2.50
2019-03-16T15:44:14.374Z,2.30
2019-03-16T15:46:40.774Z,2.20
2019-03-16T15:49:07.003Z,2.10
2019-03-16T15:51:33.029Z,2.50
2019-03-16T15:54:01.129Z,3.00
2019-03-16T15:56:27.809Z,3.63
2019-03-16T15:58:54.200Z,2.73
2019-03-16T16:01:20.551Z,2.80
2019-03-16T16:03:46.799Z,2.93
2019-03-16T16:06:12.813Z,2.67
2019-03-16T16:08:38.906Z,3.27
2019-03-16T16:11:05.375Z,3.23
2019-03-16T16:13:31.475Z,2.60
2019-03-16T16:15:57.507Z,3.20
2019-03-16T16:18:23.776Z,2.47
2019-03-16T16:20:49.922Z,3.40
2019-03-16T16:23:15.970Z,2.47
2019-03-16T16:25:42.021Z,3.07
2019-03-16T16:28:08.058Z,3.97
2019-03-16T16:30:34.178Z,3.10
2019-03-16T16:33:00.774Z,3.00
2019-03-16T16:35:26.797Z,3.43
2019-03-16T16:37:53.428Z,3.40
2019-03-16T16:40:19.982Z,2.83
2019-03-16T16:42:46.503Z,2.40
2019-03-16T16:45:13.683Z,3.10
2019-03-16T16:47:39.897Z,2.57
2019-03-16T16:50:15.635Z,3.20
2019-03-16T16:52:41.841Z,2.80
2019-03-16T16:55:08.601Z,2.40
2019-03-16T16:57:34.644Z,3.00
2019-03-16T17:00:00.776Z,2.73
2019-03-16T17:02:26.839Z,2.93
2019-03-16T17:04:53.186Z,2.90
2019-03-16T17:07:19.310Z,2.83
2019-03-16T17:09:45.413Z,2.80
2019-03-16T17:12:11.636Z,2.90
2019-03-16T17:14:37.822Z,4.00
2019-03-16T17:17:03.895Z,2.60
2019-03-16T17:19:29.959Z,2.80
2019-03-16T17:21:56.089Z,2.73
2019-03-16T17:24:22.483Z,3.87
2019-03-16T17:26:48.676Z,2.43
2019-03-16T17:29:14.697Z,2.93
2019-03-16T17:31:42.483Z,3.30
2019-03-16T17:34:08.826Z,3.00
2019-03-16T17:36:34.850Z,3.40
2019-03-16T17:39:01.174Z,2.67
2019-03-16T17:41:27.275Z,2.90
2019-03-16T17:43:53.373Z,2.50
2019-03-16T17:46:19.526Z,2.93
2019-03-16T17:48:45.585Z,3.90
2019-03-16T17:51:11.710Z,3.40
2019-03-16T17:53:37.831Z,3.13
2019-03-16T17:56:04.038Z,3.37
2019-03-16T17:58:30.182Z,3.17
2019-03-16T18:00:56.245Z,3.33
2019-03-16T18:03:22.647Z,3.63
2019-03-16T18:05:48.801Z,4.00
2019-03-16T18:08:14.906Z,3.97
2019-03-16T18:10:41.008Z,4.00
2019-03-16T18:13:11.236Z,4.20
2019-03-16T18:15:41.389Z,4.47
2019-03-16T18:18:07.527Z,5.00
2019-03-16T18:20:33.544Z,4.50
2019-03-16T18:23:02.096Z,5.00
2019-03-16T18:25:28.280Z,5.00
2019-03-16T18:27:54.465Z,5.50
2019-03-16T18:30:21.938Z,6.80
2019-03-16T18:32:48.170Z,7.03
2019-03-16T18:35:14.260Z,6.43
2019-03-16T18:37:40.561Z,7.50
2019-03-16T18:40:12.226Z,7.20
2019-03-16T18:42:38.389Z,6.60
2019-03-16T18:45:08.265Z,6.90
2019-03-16T18:47:34.784Z,7.90
2019-03-16T18:50:01.388Z,8.03
2019-03-16T18:52:27.636Z,7.93
2019-03-16T18:54:53.874Z,8.67
2019-03-16T18:57:20.057Z,7.57
2019-03-16T18:59:46.173Z,9.47
2019-03-16T19:02:20.677Z,8.93
2019-03-16T19:04:40.472Z,9.33
2019-03-16T19:07:06.507Z,9.53
2019-03-16T19:09:32.938Z,9.87
2019-03-16T19:11:59.007Z,8.57
2019-03-16T19:14:25.092Z,9.07
2019-03-16T19:16:51.511Z,11.20
2019-03-16T19:19:17.550Z,10.17
2019-03-16T19:21:43.908Z,10.07
2019-03-16T19:24:10.301Z,11.20
2019-03-16T19:26:36.305Z,10.70
2019-03-16T19:29:02.509Z,11.10
2019-03-16T19:31:28.525Z,12.00
2019-03-16T19:33:56.674Z,11.80
2019-03-16T19:36:22.868Z,13.70
2019-03-16T19:38:49.309Z,12.97
2019-03-16T19:41:15.320Z,13.43
2019-03-16T19:43:41.499Z,13.50
2019-03-16T19:46:07.673Z,13.60
2019-03-16T19:48:33.882Z,13.63
2019-03-16T19:51:04.094Z,14.37
2019-03-16T19:53:29.227Z,15.67
2019-03-16T19:55:55.401Z,15.67
2019-03-16T19:58:21.585Z,16.60
2019-03-16T20:00:49.599Z,17.93
2019-03-16T20:03:15.919Z,16.83
2019-03-16T20:05:41.940Z,15.43
2019-03-16T20:08:08.239Z,17.13
2019-03-16T20:10:34.918Z,18.10
2019-03-16T20:13:01.782Z,19.30
2019-03-16T20:15:28.288Z,17.73
2019-03-16T20:17:54.419Z,18.40
2019-03-16T20:20:20.738Z,17.37
2019-03-16T20:22:47.375Z,19.43
2019-03-16T20:25:13.611Z,20.90
2019-03-16T20:27:39.846Z,20.50
2019-03-16T20:30:13.260Z,22.47
2019-03-16T20:32:39.470Z,20.80
2019-03-16T20:35:07.317Z,19.80
2019-03-16T20:37:35.271Z,20.13
2019-03-16T20:40:01.853Z,24.93
2019-03-16T20:42:28.468Z,22.87
2019-03-16T20:44:54.689Z,28.57
2019-03-16T20:47:20.826Z,32.00
2019-03-16T20:49:47.083Z,20.47
2019-03-16T20:52:14.433Z,18.57
2019-03-16T20:54:40.651Z,19.47
2019-03-16T20:57:07.297Z,19.77
2019-03-16T20:59:33.401Z,20.20
2019-03-16T21:01:59.984Z,19.30
2019-03-16T21:04:26.182Z,18.40
2019-03-16T21:06:52.285Z,18.23
2019-03-16T21:09:18.472Z,19.00
2019-03-16T21:11:44.674Z,17.50
2019-03-16T21:14:10.911Z,17.60
2019-03-16T21:16:37.202Z,17.60
2019-03-16T21:19:04.595Z,16.97
2019-03-16T21:21:31.015Z,17.23
2019-03-16T21:23:57.461Z,16.73
2019-03-16T21:26:23.751Z,17.43
2019-03-16T21:28:50.084Z,17.80
2019-03-16T21:31:16.435Z,17.37
2019-03-16T21:33:45.687Z,16.13
2019-03-16T21:36:12.162Z,14.70
2019-03-16T21:38:38.783Z,16.13
2019-03-16T21:41:05.186Z,15.47
2019-03-16T21:43:37.498Z,14.80
2019-03-16T21:46:04.029Z,13.70
2019-03-16T21:48:31.498Z,14.93
2019-03-16T21:50:57.900Z,13.00
2019-03-16T21:53:25.878Z,15.73
2019-03-16T21:55:52.639Z,13.57
2019-03-16T21:58:19.986Z,15.00
2019-03-16T22:00:46.622Z,14.60
2019-03-16T22:03:13.072Z,12.33
2019-03-16T22:05:39.503Z,11.30
2019-03-16T22:08:08.465Z,13.07
2019-03-16T22:10:34.868Z,12.30
2019-03-16T22:13:01.147Z,11.10
2019-03-16T22:15:27.682Z,10.50
2019-03-16T22:17:54.042Z,11.23
2019-03-16T22:20:21.758Z,10.47
2019-03-16T22:22:49.373Z,10.00
2019-03-16T22:25:15.611Z,9.43
2019-03-16T22:27:42.089Z,9.97
2019-03-16T22:30:16.304Z,9.67
2019-03-16T22:32:43.167Z,7.90
2019-03-16T22:35:09.574Z,8.80
2019-03-16T22:37:35.994Z,9.10
2019-03-16T22:40:03.173Z,8.27
2019-03-16T22:42:29.458Z,8.47
2019-03-16T22:44:55.626Z,7.70
2019-03-16T22:47:25.667Z,7.10
2019-03-16T22:49:55.921Z,7.50
2019-03-16T22:52:22.103Z,7.57
2019-03-16T22:54:48.446Z,7.27
2019-03-16T22:57:14.554Z,7.10
2019-03-16T22:59:40.589Z,7.07
2019-03-16T23:02:14.402Z,6.50
2019-03-16T23:04:41.239Z,9.10
2019-03-16T23:07:09.503Z,6.70
2019-03-16T23:09:35.733Z,10.37
2019-03-16T23:12:01.891Z,9.20
2019-03-16T23:14:28.102Z,6.67
2019-03-16T23:16:54.224Z,6.47
2019-03-16T23:19:20.414Z,6.40
2019-03-16T23:21:47.088Z,6.53
2019-03-16T23:24:13.375Z,7.13
2019-03-16T23:26:39.515Z,5.80
2019-03-16T23:29:05.779Z,5.83
2019-03-16T23:31:32.106Z,5.33
2019-03-16T23:33:58.642Z,5.63
2019-03-16T23:36:24.765Z,6.27
2019-03-16T23:38:50.895Z,5.93
2019-03-16T23:41:17.454Z,5.33
2019-03-16T23:43:43.654Z,6.30
2019-03-16T23:46:09.777Z,5.50
2019-03-16T23:48:35.811Z,6.30
2019-03-16T23:51:02.035Z,4.93
2019-03-16T23:53:28.333Z,5.50
2019-03-16T23:55:54.511Z,6.67
2019-03-16T23:58:20.719Z,6.00
